createdAt,value
2018-04-01T00:01:36.508Z,3.10
2018-04-01T00:04:04.473Z,3.00
2018-04-01T00:06:31.416Z,3.00
2018-04-01T00:08:58.359Z,3.10
2018-04-01T00:11:25.291Z,3.10
2018-04-01T00:13:52.222Z,3.10
2018-04-01T00:16:19.170Z,3.10
2018-04-01T00:18:46.138Z,3.10
2018-04-01T00:21:13.058Z,3.10
2018-04-01T00:23:40.042Z,3.00
2018-04-01T00:26:07.058Z,3.10
2018-04-01T00:28:35.882Z,3.00
2018-04-01T00:31:02.827Z,3.00
2018-04-01T00:33:29.762Z,3.00
2018-04-01T00:35:57.442Z,2.90
2018-04-01T00:38:25.356Z,3.00
2018-04-01T00:40:52.296Z,2.90
2018-04-01T00:43:20.334Z,3.00
2018-04-01T00:45:47.328Z,3.00
2018-04-01T00:48:14.278Z,3.00
2018-04-01T00:50:42.068Z,3.00
2018-04-01T00:53:09.069Z,2.90
2018-04-01T00:55:35.970Z,2.90
2018-04-01T00:58:02.907Z,2.80
2018-04-01T01:00:30.612Z,2.80
2018-04-01T01:02:57.538Z,2.80
2018-04-01T01:05:24.475Z,2.80
2018-04-01T01:07:51.434Z,2.80
2018-04-01T01:10:19.134Z,2.80
2018-04-01T01:12:46.850Z,2.80
2018-04-01T01:15:13.786Z,2.80
2018-04-01T01:17:40.751Z,2.80
2018-04-01T01:20:07.727Z,2.80
2018-04-01T01:22:34.647Z,2.80
2018-04-01T01:25:01.611Z,2.80
2018-04-01T01:27:28.538Z,2.70
2018-04-01T01:29:55.486Z,2.70
2018-04-01T01:32:22.428Z,2.70
2018-04-01T01:34:49.354Z,2.70
2018-04-01T01:37:16.309Z,2.70
2018-04-01T01:39:43.262Z,2.70
2018-04-01T01:42:10.214Z,2.70
2018-04-01T01:44:37.149Z,2.70
2018-04-01T01:47:04.854Z,2.70
2018-04-01T01:49:31.778Z,2.70
2018-04-01T01:51:59.494Z,2.70
2018-04-01T01:54:26.415Z,2.70
2018-04-01T01:56:54.118Z,2.70
2018-04-01T01:59:21.039Z,2.70
2018-04-01T02:01:48.739Z,2.80
2018-04-01T02:04:15.718Z,2.70
2018-04-01T02:06:42.644Z,2.70
2018-04-01T02:09:09.570Z,2.70
2018-04-01T02:11:37.893Z,2.70
2018-04-01T02:14:04.824Z,2.70
2018-04-01T02:16:32.519Z,2.70
2018-04-01T02:18:59.450Z,2.70
2018-04-01T02:21:26.395Z,2.70
2018-04-01T02:23:53.330Z,2.70
2018-04-01T02:26:20.293Z,2.70
2018-04-01T02:28:47.214Z,2.70
2018-04-01T02:31:15.635Z,2.70
2018-04-01T02:33:43.406Z,2.70
2018-04-01T02:36:10.328Z,2.70
2018-04-01T02:38:38.417Z,2.70
2018-04-01T02:41:05.351Z,2.70
2018-04-01T02:43:33.037Z,2.60
2018-04-01T02:46:00.565Z,2.60
2018-04-01T02:48:27.483Z,2.60
2018-04-01T02:50:54.410Z,2.60
2018-04-01T02:53:22.116Z,2.60
2018-04-01T02:55:49.043Z,2.60
2018-04-01T02:58:16.749Z,2.50
2018-04-01T03:00:43.680Z,2.50
2018-04-01T03:03:11.390Z,2.60
2018-04-01T03:05:38.335Z,2.60
2018-04-01T03:08:05.255Z,2.60
2018-04-01T03:10:32.951Z,2.60
2018-04-01T03:12:59.874Z,2.60
2018-04-01T03:15:29.260Z,2.60
2018-04-01T03:17:56.192Z,2.60
2018-04-01T03:20:23.120Z,2.60
2018-04-01T03:22:50.831Z,2.60
2018-04-01T03:25:17.754Z,2.60
2018-04-01T03:27:44.681Z,2.60
2018-04-01T03:30:11.635Z,2.60
2018-04-01T03:32:38.670Z,2.60
2018-04-01T03:35:05.607Z,2.60
2018-04-01T03:37:32.529Z,2.50
2018-04-01T03:40:00.247Z,2.60
2018-04-01T03:42:27.170Z,2.50
2018-04-01T03:44:54.107Z,2.50
2018-04-01T03:47:21.806Z,2.60
2018-04-01T03:49:49.493Z,2.60
2018-04-01T03:52:16.422Z,2.60
2018-04-01T03:54:44.166Z,2.70
2018-04-01T03:57:11.106Z,2.60
2018-04-01T03:59:38.031Z,2.60
2018-04-01T04:02:05.004Z,2.60
2018-04-01T04:04:31.941Z,2.50
2018-04-01T04:06:58.870Z,2.60
2018-04-01T04:09:26.622Z,2.60
2018-04-01T04:11:53.542Z,2.60
2018-04-01T04:14:20.466Z,2.50
2018-04-01T04:16:47.398Z,2.50
2018-04-01T04:19:14.320Z,2.50
2018-04-01T04:21:41.251Z,2.40
2018-04-01T04:24:09.863Z,2.40
2018-04-01T04:26:36.803Z,2.30
2018-04-01T04:29:04.489Z,2.40
2018-04-01T04:31:31.409Z,2.40
2018-04-01T04:33:59.099Z,2.40
2018-04-01T04:36:26.029Z,2.40
2018-04-01T04:38:52.970Z,2.40
2018-04-01T04:41:19.881Z,2.30
2018-04-01T04:43:46.829Z,2.30
2018-04-01T04:46:14.517Z,2.30
2018-04-01T04:48:41.454Z,2.30
2018-04-01T04:51:09.150Z,2.40
2018-04-01T04:53:36.058Z,2.40
2018-04-01T04:56:02.993Z,2.50
2018-04-01T04:58:29.931Z,2.50
2018-04-01T05:00:56.918Z,2.50
2018-04-01T05:03:23.852Z,2.50
2018-04-01T05:05:50.785Z,2.50
2018-04-01T05:08:18.482Z,2.40
2018-04-01T05:10:45.430Z,2.40
2018-04-01T05:13:12.361Z,2.50
2018-04-01T05:15:41.001Z,2.40
2018-04-01T05:18:07.942Z,2.40
2018-04-01T05:20:34.867Z,2.50
2018-04-01T05:23:02.555Z,2.50
2018-04-01T05:25:29.482Z,2.50
2018-04-01T05:27:56.419Z,2.50
2018-04-01T05:30:23.353Z,2.50
2018-04-01T05:32:50.287Z,2.60
2018-04-01T05:35:17.244Z,2.60
2018-04-01T05:37:44.158Z,2.60
2018-04-01T05:40:12.096Z,2.60
2018-04-01T05:42:39.034Z,2.60
2018-04-01T05:45:05.949Z,2.60
2018-04-01T05:47:32.896Z,2.70
2018-04-01T05:49:59.830Z,2.70
2018-04-01T05:52:26.841Z,2.70
2018-04-01T05:54:54.555Z,2.70
2018-04-01T05:57:21.512Z,2.70
2018-04-01T05:59:48.439Z,2.70
2018-04-01T06:02:16.135Z,2.60
2018-04-01T06:04:43.094Z,2.60
2018-04-01T06:07:10.037Z,2.50
2018-04-01T06:09:36.981Z,2.60
2018-04-01T06:12:04.688Z,2.60
2018-04-01T06:14:31.631Z,2.70
2018-04-01T06:16:59.357Z,2.70
2018-04-01T06:19:26.297Z,2.70
2018-04-01T06:21:53.226Z,2.70
2018-04-01T06:24:20.178Z,2.80
2018-04-01T06:26:47.096Z,2.80
2018-04-01T06:29:14.019Z,2.80
2018-04-01T06:31:40.954Z,2.80
2018-04-01T06:34:07.917Z,2.90
2018-04-01T06:36:34.841Z,2.90
2018-04-01T06:39:02.539Z,3.00
2018-04-01T06:41:29.474Z,3.00
2018-04-01T06:43:57.175Z,3.00
2018-04-01T06:46:24.118Z,3.00
2018-04-01T06:48:51.037Z,3.00
2018-04-01T06:51:17.963Z,3.10
2018-04-01T06:53:44.884Z,3.10
2018-04-01T06:56:13.506Z,3.20
2018-04-01T06:58:40.446Z,3.20
2018-04-01T07:01:07.386Z,3.30
2018-04-01T07:03:34.325Z,3.30
2018-04-01T07:06:02.042Z,3.40
2018-04-01T07:08:28.983Z,3.40
2018-04-01T07:10:55.912Z,3.40
2018-04-01T07:13:23.601Z,3.50
2018-04-01T07:15:51.285Z,3.50
2018-04-01T07:18:18.250Z,3.50
2018-04-01T07:20:45.173Z,3.50
2018-04-01T07:23:12.102Z,3.50
2018-04-01T07:25:39.222Z,3.60
2018-04-01T07:28:06.149Z,3.50
2018-04-01T07:30:33.851Z,3.60
2018-04-01T07:33:00.779Z,3.50
2018-04-01T07:35:28.486Z,3.50
2018-04-01T07:37:55.398Z,3.50
2018-04-01T07:40:22.330Z,3.50
2018-04-01T07:42:49.255Z,3.60
2018-04-01T07:45:16.202Z,3.60
2018-04-01T07:47:44.703Z,3.70
2018-04-01T07:50:11.653Z,3.70
2018-04-01T07:52:38.631Z,3.70
2018-04-01T07:55:05.567Z,3.70
2018-04-01T07:57:32.514Z,3.70
2018-04-01T08:00:00.216Z,3.70
2018-04-01T08:02:27.130Z,3.70
2018-04-01T08:04:54.835Z,3.60
2018-04-01T08:07:21.768Z,3.60
2018-04-01T08:09:49.477Z,3.60
2018-04-01T08:12:16.503Z,3.60
2018-04-01T08:14:45.137Z,3.70
2018-04-01T08:17:12.066Z,3.70
2018-04-01T08:19:39.776Z,3.70
2018-04-01T08:22:06.724Z,3.70
2018-04-01T08:24:33.634Z,3.70
2018-04-01T08:27:01.331Z,3.80
2018-04-01T08:29:29.017Z,3.80
2018-04-01T08:31:55.965Z,3.80
2018-04-01T08:34:22.909Z,3.90
2018-04-01T08:36:50.598Z,4.00
2018-04-01T08:39:17.536Z,4.00
2018-04-01T08:41:45.073Z,4.10
2018-04-01T08:44:12.016Z,4.10
2018-04-01T08:46:38.959Z,4.10
2018-04-01T08:49:05.914Z,4.10
2018-04-01T08:51:32.866Z,4.10
2018-04-01T08:53:59.814Z,4.10
2018-04-01T08:56:26.774Z,4.10
2018-04-01T08:58:53.694Z,4.10
2018-04-01T09:01:20.616Z,4.10
2018-04-01T09:03:47.554Z,4.10
2018-04-01T09:06:16.166Z,4.00
2018-04-01T09:08:43.101Z,4.00
2018-04-01T09:11:10.066Z,4.10
2018-04-01T09:13:37.017Z,4.00
2018-04-01T09:16:03.949Z,4.10
2018-04-01T09:18:30.877Z,4.10
2018-04-01T09:20:57.841Z,4.10
2018-04-01T09:23:24.842Z,4.20
2018-04-01T09:25:51.766Z,4.10
2018-04-01T09:28:19.467Z,4.10
2018-04-01T09:30:46.433Z,4.10
2018-04-01T09:33:13.373Z,4.10
2018-04-01T09:35:40.337Z,4.10
2018-04-01T09:38:07.294Z,4.20
2018-04-01T09:40:34.233Z,4.20
2018-04-01T09:43:01.923Z,4.20
2018-04-01T09:45:28.879Z,4.20
2018-04-01T09:47:56.594Z,4.30
2018-04-01T09:50:23.538Z,4.30
2018-04-01T09:52:51.365Z,4.30
2018-04-01T09:55:19.075Z,4.20
2018-04-01T09:57:47.442Z,4.20
2018-04-01T10:00:20.928Z,4.20
2018-04-01T10:02:49.843Z,4.20
2018-04-01T10:05:18.060Z,4.20
2018-04-01T10:07:45.470Z,4.20
2018-04-01T10:10:12.909Z,4.20
2018-04-01T10:12:41.187Z,4.20
2018-04-01T10:15:09.361Z,4.40
2018-04-01T10:17:36.782Z,4.40
2018-04-01T10:20:04.222Z,4.40
2018-04-01T10:22:31.678Z,4.50
2018-04-01T10:24:59.080Z,4.60
2018-04-01T10:27:26.495Z,4.60
2018-04-01T10:29:54.682Z,4.60
2018-04-01T10:32:22.115Z,4.60
2018-04-01T10:34:49.529Z,4.60
2018-04-01T10:37:17.874Z,4.60
2018-04-01T10:39:45.285Z,4.60
2018-04-01T10:42:12.777Z,4.60
2018-04-01T10:44:40.177Z,4.60
2018-04-01T10:47:07.597Z,4.60
2018-04-01T10:49:35.007Z,4.70
2018-04-01T10:52:02.430Z,4.70
2018-04-01T10:54:29.359Z,4.70
2018-04-01T10:56:56.274Z,4.70
2018-04-01T10:59:23.210Z,4.70
2018-04-01T11:01:50.130Z,4.70
2018-04-01T11:04:18.753Z,4.70
2018-04-01T11:06:45.670Z,4.70
2018-04-01T11:09:12.606Z,4.70
2018-04-01T11:11:39.547Z,4.60
2018-04-01T11:14:06.482Z,4.70
2018-04-01T11:16:33.424Z,4.70
2018-04-01T11:19:01.110Z,5.00
2018-04-01T11:21:28.062Z,5.00
2018-04-01T11:23:54.997Z,5.00
2018-04-01T11:26:22.703Z,5.00
2018-04-01T11:28:49.633Z,5.00
2018-04-01T11:31:17.390Z,5.30
2018-04-01T11:33:44.278Z,5.20
2018-04-01T11:36:11.247Z,5.50
2018-04-01T11:38:38.170Z,5.60
2018-04-01T11:41:05.865Z,5.80
2018-04-01T11:43:32.827Z,5.80
2018-04-01T11:45:59.746Z,6.00
2018-04-01T11:48:26.688Z,6.10
2018-04-01T11:50:53.654Z,6.20
2018-04-01T11:53:20.611Z,6.40
2018-04-01T11:55:47.560Z,6.50
2018-04-01T11:58:14.476Z,6.40
2018-04-01T12:00:41.412Z,6.30
2018-04-01T12:03:08.334Z,6.10
2018-04-01T12:05:35.267Z,6.10
2018-04-01T12:08:02.193Z,6.70
2018-04-01T12:10:29.131Z,7.50
2018-04-01T12:12:56.836Z,7.80
2018-04-01T12:15:23.770Z,7.80
2018-04-01T12:17:50.691Z,7.70
2018-04-01T12:20:17.626Z,7.80
2018-04-01T12:22:44.554Z,7.50
2018-04-01T12:25:11.490Z,7.30
2018-04-01T12:27:39.184Z,7.20
2018-04-01T12:30:06.122Z,7.20
2018-04-01T12:32:33.827Z,6.80
2018-04-01T12:35:00.758Z,6.80
2018-04-01T12:37:27.686Z,6.70
2018-04-01T12:39:54.606Z,6.70
2018-04-01T12:42:21.542Z,6.80
2018-04-01T12:44:48.478Z,6.70
2018-04-01T12:47:16.177Z,6.70
2018-04-01T12:49:43.106Z,6.70
2018-04-01T12:52:10.805Z,6.80
2018-04-01T12:54:37.754Z,6.80
2018-04-01T12:57:05.445Z,7.40
2018-04-01T12:59:32.385Z,7.40
2018-04-01T13:01:59.306Z,7.30
2018-04-01T13:04:26.246Z,7.10
2018-04-01T13:06:53.173Z,7.10
2018-04-01T13:09:21.453Z,7.10
2018-04-01T13:11:48.392Z,7.10
2018-04-01T13:14:16.073Z,6.60
2018-04-01T13:16:42.994Z,6.60
2018-04-01T13:19:10.713Z,6.70
2018-04-01T13:21:37.647Z,6.70
2018-04-01T13:24:05.334Z,7.30
2018-04-01T13:26:32.277Z,7.30
2018-04-01T13:28:59.186Z,7.20
2018-04-01T13:31:26.153Z,7.10
2018-04-01T13:33:53.070Z,7.10
2018-04-01T13:36:20.025Z,7.10
2018-04-01T13:38:46.956Z,7.30
2018-04-01T13:41:13.885Z,7.70
2018-04-01T13:43:40.821Z,7.70
2018-04-01T13:46:07.754Z,7.30
2018-04-01T13:48:34.675Z,7.30
2018-04-01T13:51:02.382Z,8.40
2018-04-01T13:53:29.338Z,8.30
2018-04-01T13:55:56.270Z,8.20
2018-04-01T13:58:23.946Z,7.90
2018-04-01T14:00:52.575Z,7.80
2018-04-01T14:03:19.516Z,7.80
2018-04-01T14:05:47.202Z,8.10
2018-04-01T14:08:14.138Z,8.10
2018-04-01T14:10:41.872Z,8.20
2018-04-01T14:13:08.791Z,8.20
2018-04-01T14:15:35.756Z,8.00
2018-04-01T14:18:02.715Z,7.90
2018-04-01T14:20:29.636Z,7.80
2018-04-01T14:22:56.609Z,7.80
2018-04-01T14:25:23.554Z,8.90
2018-04-01T14:27:52.268Z,11.40
2018-04-01T14:30:19.238Z,11.40
2018-04-01T14:32:46.897Z,13.20
2018-04-01T14:35:13.847Z,13.10
2018-04-01T14:37:40.922Z,13.40
2018-04-01T14:40:07.907Z,12.90
2018-04-01T14:42:34.790Z,11.80
2018-04-01T14:45:01.728Z,10.90
2018-04-01T14:47:28.655Z,10.10
2018-04-01T14:49:55.576Z,9.40
2018-04-01T14:52:23.674Z,8.60
2018-04-01T14:54:50.602Z,8.60
2018-04-01T14:57:17.537Z,8.40
2018-04-01T14:59:44.471Z,8.60
2018-04-01T15:02:11.403Z,8.60
2018-04-01T15:04:38.368Z,8.60
2018-04-01T15:07:05.295Z,8.80
2018-04-01T15:09:32.994Z,8.30
2018-04-01T15:11:59.929Z,8.30
2018-04-01T15:14:27.655Z,8.20
2018-04-01T15:16:55.422Z,8.20
2018-04-01T15:19:23.258Z,8.80
2018-04-01T15:21:50.195Z,9.60
2018-04-01T15:24:17.195Z,9.50
2018-04-01T15:26:44.153Z,9.30
2018-04-01T15:29:11.090Z,8.90
2018-04-01T15:31:38.045Z,8.60
2018-04-01T15:34:05.748Z,8.90
2018-04-01T15:36:32.671Z,8.90
2018-04-01T15:39:00.374Z,8.60
2018-04-01T15:41:27.294Z,8.60
2018-04-01T15:43:54.978Z,8.20
2018-04-01T15:46:21.923Z,8.20
2018-04-01T15:48:49.629Z,9.20
2018-04-01T15:51:16.584Z,9.10
2018-04-01T15:53:44.301Z,9.20
2018-04-01T15:56:11.285Z,9.20
2018-04-01T15:58:38.213Z,9.20
2018-04-01T16:01:05.132Z,9.10
2018-04-01T16:03:32.056Z,8.90
2018-04-01T16:05:59.786Z,8.80
2018-04-01T16:08:26.713Z,8.80
2018-04-01T16:10:53.986Z,9.10
2018-04-01T16:13:20.918Z,9.40
2018-04-01T16:15:48.609Z,9.70
2018-04-01T16:18:15.540Z,9.70
2018-04-01T16:20:43.287Z,9.40
2018-04-01T16:23:10.223Z,9.40
2018-04-01T16:25:37.143Z,9.30
2018-04-01T16:28:04.066Z,9.30
2018-04-01T16:30:30.986Z,9.30
2018-04-01T16:32:57.925Z,9.60
2018-04-01T16:35:24.863Z,10.00
2018-04-01T16:37:52.550Z,10.70
2018-04-01T16:40:19.490Z,10.70
2018-04-01T16:42:47.218Z,9.80
2018-04-01T16:45:14.142Z,9.80
2018-04-01T16:47:41.078Z,9.30
2018-04-01T16:50:08.802Z,8.60
2018-04-01T16:52:35.749Z,8.60
2018-04-01T16:55:02.674Z,8.30
2018-04-01T16:57:30.364Z,7.80
2018-04-01T16:59:57.321Z,7.80
2018-04-01T17:02:25.503Z,7.50
2018-04-01T17:04:52.447Z,7.50
2018-04-01T17:07:20.139Z,7.30
2018-04-01T17:09:47.088Z,7.30
2018-04-01T17:12:14.030Z,7.20
2018-04-01T17:14:41.723Z,7.20
2018-04-01T17:17:08.658Z,7.20
2018-04-01T17:19:36.346Z,7.00
2018-04-01T17:22:03.282Z,7.00
2018-04-01T17:24:30.978Z,6.90
2018-04-01T17:26:57.953Z,6.90
2018-04-01T17:29:25.906Z,6.80
2018-04-01T17:31:53.604Z,6.80
2018-04-01T17:34:20.557Z,6.80
2018-04-01T17:36:47.483Z,6.70
2018-04-01T17:39:15.199Z,6.60
2018-04-01T17:41:42.124Z,6.60
2018-04-01T17:44:09.905Z,6.60
2018-04-01T17:46:37.566Z,6.50
2018-04-01T17:49:05.262Z,6.50
2018-04-01T17:51:32.237Z,6.50
2018-04-01T17:53:59.198Z,6.40
2018-04-01T17:56:26.104Z,6.40
2018-04-01T17:58:53.031Z,6.40
2018-04-01T18:01:19.979Z,6.40
2018-04-01T18:03:46.907Z,6.40
2018-04-01T18:06:13.843Z,6.40
2018-04-01T18:08:40.782Z,6.30
2018-04-01T18:11:07.702Z,6.30
2018-04-01T18:13:34.636Z,6.40
2018-04-01T18:16:01.567Z,6.40
2018-04-01T18:18:29.262Z,6.30
2018-04-01T18:20:56.506Z,6.30
2018-04-01T18:23:23.526Z,6.30
2018-04-01T18:25:50.441Z,6.30
2018-04-01T18:28:17.379Z,6.30
2018-04-01T18:30:45.074Z,6.30
2018-04-01T18:33:12.817Z,6.30
2018-04-01T18:35:39.761Z,6.30
2018-04-01T18:38:06.747Z,6.30
2018-04-01T18:40:33.655Z,6.30
2018-04-01T18:43:00.809Z,6.30
2018-04-01T18:45:27.725Z,6.30
2018-04-01T18:47:56.393Z,6.30
2018-04-01T18:50:23.322Z,6.20
2018-04-01T18:52:50.257Z,6.20
2018-04-01T18:55:17.181Z,6.20
2018-04-01T18:57:44.115Z,6.30
2018-04-01T19:00:11.056Z,6.30
2018-04-01T19:02:37.971Z,6.20
2018-04-01T19:05:04.886Z,6.20
2018-04-01T19:07:31.816Z,6.20
2018-04-01T19:09:58.735Z,6.20
2018-04-01T19:12:27.365Z,6.00
2018-04-01T19:14:54.283Z,6.00
2018-04-01T19:17:22.482Z,6.00
2018-04-01T19:19:50.651Z,5.90
2018-04-01T19:22:18.838Z,5.80
2018-04-01T19:24:47.017Z,5.80
2018-04-01T19:27:15.217Z,5.70
2018-04-01T19:29:43.404Z,5.60
2018-04-01T19:32:10.834Z,5.60
2018-04-01T19:34:38.250Z,5.60
2018-04-01T19:37:05.662Z,5.60
2018-04-01T19:39:33.076Z,5.50
2018-04-01T19:42:01.251Z,5.50
2018-04-01T19:44:29.442Z,5.50
2018-04-01T19:46:58.534Z,5.50
2018-04-01T19:49:25.954Z,5.40
2018-04-01T19:51:53.383Z,5.50
2018-04-01T19:54:21.575Z,5.40
2018-04-01T19:56:49.758Z,5.30
2018-04-01T19:59:17.944Z,5.30
2018-04-01T20:01:46.131Z,5.20
2018-04-01T20:04:14.314Z,5.20
2018-04-01T20:06:42.551Z,5.20
2018-04-01T20:09:09.951Z,5.20
2018-04-01T20:11:37.335Z,5.20
2018-04-01T20:14:05.592Z,5.10
2018-04-01T20:16:32.975Z,5.10
2018-04-01T20:19:00.383Z,5.10
2018-04-01T20:21:29.037Z,5.00
2018-04-01T20:23:56.462Z,5.00
2018-04-01T20:26:23.878Z,5.00
2018-04-01T20:28:51.294Z,5.00
2018-04-01T20:31:18.707Z,4.90
2018-04-01T20:33:46.130Z,4.90
2018-04-01T20:36:13.549Z,4.80
2018-04-01T20:38:40.989Z,4.80
2018-04-01T20:41:08.411Z,4.70
2018-04-01T20:43:36.602Z,4.70
2018-04-01T20:46:04.016Z,4.70
2018-04-01T20:48:31.546Z,4.60
2018-04-01T20:50:58.970Z,4.60
2018-04-01T20:53:26.400Z,4.60
2018-04-01T20:55:53.805Z,4.60
2018-04-01T20:58:21.229Z,4.50
2018-04-01T21:00:48.652Z,4.50
2018-04-01T21:03:16.083Z,4.50
2018-04-01T21:05:43.508Z,4.40
2018-04-01T21:08:10.991Z,4.40
2018-04-01T21:10:38.425Z,4.40
2018-04-01T21:13:05.827Z,5.00
2018-04-01T21:15:33.255Z,5.50
2018-04-01T21:18:00.670Z,5.40
2018-04-01T21:20:28.103Z,5.20
2018-04-01T21:22:55.546Z,5.00
2018-04-01T21:25:22.983Z,4.80
2018-04-01T21:27:50.418Z,4.70
2018-04-01T21:30:18.615Z,4.50
2018-04-01T21:32:46.793Z,4.50
2018-04-01T21:35:14.975Z,4.40
2018-04-01T21:37:43.158Z,4.30
2018-04-01T21:40:11.370Z,4.20
2018-04-01T21:42:38.846Z,4.20
2018-04-01T21:45:06.265Z,4.20
2018-04-01T21:47:33.689Z,4.10
2018-04-01T21:50:01.118Z,4.40
2018-04-01T21:52:30.237Z,5.10
2018-04-01T21:54:58.423Z,4.90
2018-04-01T21:57:26.603Z,4.70
2018-04-01T21:59:54.786Z,4.60
2018-04-01T22:02:22.970Z,4.40
2018-04-01T22:04:51.159Z,4.60
2018-04-01T22:07:19.791Z,4.50
2018-04-01T22:09:47.212Z,4.50
2018-04-01T22:12:14.642Z,4.40
2018-04-01T22:14:42.098Z,4.30
2018-04-01T22:17:10.255Z,4.10
2018-04-01T22:19:38.433Z,4.00
2018-04-01T22:22:06.606Z,3.90
2018-04-01T22:24:34.022Z,3.90
2018-04-01T22:27:01.447Z,3.80
2018-04-01T22:29:28.861Z,3.70
2018-04-01T22:31:56.281Z,3.70
2018-04-01T22:34:23.706Z,3.60
2018-04-01T22:36:51.118Z,3.60
2018-04-01T22:39:18.530Z,3.60
2018-04-01T22:41:45.946Z,3.60
2018-04-01T22:44:13.381Z,4.10
2018-04-01T22:46:40.830Z,4.30
2018-04-01T22:49:08.260Z,4.20
2018-04-01T22:51:35.678Z,4.20
2018-04-01T22:54:03.140Z,4.10
2018-04-01T22:56:31.702Z,4.10
2018-04-01T22:58:59.889Z,4.20
2018-04-01T23:01:28.065Z,4.10
2018-04-01T23:03:55.486Z,4.10
2018-04-01T23:06:22.913Z,4.00
2018-04-01T23:08:50.434Z,3.90
2018-04-01T23:11:17.847Z,3.80
2018-04-01T23:13:46.048Z,3.80
2018-04-01T23:16:14.234Z,3.80
2018-04-01T23:18:42.442Z,3.80
2018-04-01T23:21:09.868Z,3.70
2018-04-01T23:23:37.275Z,3.70
2018-04-01T23:26:04.682Z,3.70
2018-04-01T23:28:32.098Z,3.70
2018-04-01T23:30:59.521Z,3.70
2018-04-01T23:33:26.959Z,3.70
2018-04-01T23:35:54.350Z,3.70
2018-04-01T23:38:21.778Z,3.80
2018-04-01T23:40:49.200Z,3.80
2018-04-01T23:43:16.607Z,3.70
2018-04-01T23:45:44.803Z,3.60
2018-04-01T23:48:12.240Z,3.60
2018-04-01T23:50:41.166Z,3.50
2018-04-01T23:53:08.589Z,3.50
2018-04-01T23:55:36.032Z,3.50
2018-04-01T23:58:03.438Z,3.40
